Ebeye, MH

8:04 AM MHT on August 30, 2016 (GMT +1200)
Sand Island, Henderson Field | | Change Station

Elev 13 ft 28.22 °N, 177.37 °W | Updated 8 minutes ago

Overcast
Overcast
81 °F
Feels Like 87 °F
N
4
Wind Variable Wind from West

Today
High -- | Low -- °F
--% Chance of Precip.
Yesterday
High -- | Low -- °F
Precip. -- in
Pressure 29.98 in
Visibility 10.0 miles
Clouds Mostly Cloudy 4800 ft
Overcast 12000 ft
Heat Index 87 °F
Dew Point 76 °F
Humidity 85%
Rainfall 0.01 in
Snow Depth Not available.
6:28 AM 6:44 PM
Waning Crescent, 7% visible
METAR PMDY 291956Z AUTO 27003KT 10SM BKN048 OVC120 27/24 A2998 RMK AO2 SLP151 T02720244
Pressure 29.98 in
Visibility 10.0 miles
Clouds Mostly Cloudy 4800 ft
Overcast 12000 ft
Heat Index 87 °F
Dew Point 76 °F
Humidity 85%
Rainfall 0.01 in
Snow Depth Not available.
6:28 AM 6:44 PM
Waning Crescent, 7% visible
METAR PMDY 291956Z AUTO 27003KT 10SM BKN048 OVC120 27/24 A2998 RMK AO2 SLP151 T02720244

10-Day Weather Forecast

No radar image for this location.
×

Almanac

Astronomy

Aug. 30, 2016 Rise Set
Actual Time
Civil Twilight
Nautical Twilight
Astronomical Twilight
Moon
Length of Visible Light
Length of Day
Tomorrow will be .
, % of the Moon is Illuminated

Today's Extremes

State Highs State Lows

Community

WunderPhotos

Upload Photos

1,935,647 photos uploaded!

WunderBlog® & News

Nearby

Air Quality

  Air Quality AQ Index Pollutant
Not available.

Snow Depth

Station Depth Elevation

Earthquake Activity

City Distance Mag. Time & Date
Minimum magnitude displayed is 2.5.

Coastal Water Temperatures

Place Temperature

Stations

Nearby Weather Stations

Station Location Temp. Windchill Dew Point Humidity Wind Precip. Elev Updated Type
                   

Watches & Warnings

There are currently no watches in effect.